createdAt,value
2019-01-21T00:02:08.461Z,101842.81
2019-01-21T00:06:13.437Z,101841.08
2019-01-21T00:10:18.342Z,101847.73
2019-01-21T00:14:23.264Z,101845.57
2019-01-21T00:18:28.189Z,101850.00
2019-01-21T00:22:33.176Z,101867.15
2019-01-21T00:26:38.086Z,101855.98
2019-01-21T00:30:43.007Z,101855.64
2019-01-21T00:34:48.043Z,101856.78
2019-01-21T00:38:52.940Z,101852.77
2019-01-21T00:42:57.849Z,101845.84
2019-01-21T00:47:02.738Z,101846.70
2019-01-21T00:51:07.654Z,101851.34
2019-01-21T00:55:12.642Z,101849.45
2019-01-21T00:59:17.663Z,101841.33
2019-01-21T01:03:22.580Z,101846.28
2019-01-21T01:07:27.502Z,101849.14
2019-01-21T01:11:32.519Z,101849.64
2019-01-21T01:15:37.456Z,101851.30
2019-01-21T01:19:42.351Z,101856.98
2019-01-21T01:23:47.239Z,101866.30
2019-01-21T01:27:52.588Z,101879.69
2019-01-21T01:31:57.496Z,101882.58
2019-01-21T01:36:02.471Z,101882.30
2019-01-21T01:40:11.353Z,101881.16
2019-01-21T01:44:16.274Z,101893.13
2019-01-21T01:48:21.450Z,101895.59
2019-01-21T01:52:26.367Z,101897.13
2019-01-21T01:56:31.340Z,101918.27
2019-01-21T02:00:36.795Z,101917.97
2019-01-21T02:04:41.690Z,101913.41
2019-01-21T02:08:46.999Z,101911.56
2019-01-21T02:12:51.892Z,101914.04
2019-01-21T02:16:56.813Z,101913.74
2019-01-21T02:21:02.823Z,101915.98
2019-01-21T02:25:08.428Z,101915.62
2019-01-21T02:29:54.167Z,101917.73
2019-01-21T02:35:08.761Z,101915.44
2019-01-21T02:39:33.141Z,101916.92
2019-01-21T02:44:44.475Z,101918.90
2019-01-21T02:49:06.720Z,101906.48
2019-01-21T02:54:14.445Z,101911.82
2019-01-21T02:58:46.694Z,101906.80
2019-01-21T03:03:37.424Z,101911.98
2019-01-21T03:08:30.914Z,101908.27
2019-01-21T03:13:19.455Z,101907.77
2019-01-21T03:18:07.999Z,101900.38
2019-01-21T03:22:50.133Z,101899.14
2019-01-21T03:27:58.376Z,101897.80
2019-01-21T03:32:51.738Z,101894.20
2019-01-21T03:38:03.644Z,101880.32
2019-01-21T03:42:41.830Z,101884.14
2019-01-21T03:47:29.684Z,101886.66
2019-01-21T03:52:17.264Z,101886.20
2019-01-21T03:57:03.951Z,101891.42
2019-01-21T04:02:36.579Z,101889.95
2019-01-21T04:07:24.817Z,101880.17
2019-01-21T04:12:30.636Z,101890.84
2019-01-21T04:17:17.580Z,101897.23
2019-01-21T04:22:01.150Z,101898.88
2019-01-21T04:26:42.879Z,101887.88
2019-01-21T04:31:44.925Z,101891.27
2019-01-21T04:36:32.599Z,101892.12
2019-01-21T04:40:57.427Z,101896.89
2019-01-21T04:45:56.708Z,101894.13
2019-01-21T04:50:56.775Z,101891.73
2019-01-21T04:56:00.304Z,101892.88
2019-01-21T05:00:42.194Z,101892.98
2019-01-21T05:05:26.154Z,101898.13
2019-01-21T05:10:34.696Z,101904.09
2019-01-21T05:15:41.549Z,101894.66
2019-01-21T05:21:04.900Z,101897.60
2019-01-21T05:26:12.993Z,101911.23
2019-01-21T05:30:59.591Z,101905.38
2019-01-21T05:36:04.886Z,101899.26
2019-01-21T05:40:57.871Z,101897.38
2019-01-21T05:45:44.007Z,101897.48
2019-01-21T05:50:18.141Z,101884.86
2019-01-21T05:55:07.503Z,101886.34
2019-01-21T05:59:48.795Z,101899.55
2019-01-21T06:04:41.285Z,101892.61
2019-01-21T06:09:32.138Z,101902.75
2019-01-21T06:14:21.366Z,101897.16
2019-01-21T06:19:29.455Z,101903.25
2019-01-21T06:24:00.008Z,101911.69
2019-01-21T06:29:11.855Z,101918.41
2019-01-21T06:33:56.413Z,101914.99
2019-01-21T06:39:10.413Z,101920.91
2019-01-21T06:44:10.314Z,101923.38
2019-01-21T06:48:54.584Z,101918.44
2019-01-21T06:53:34.494Z,101920.33
2019-01-21T06:58:13.051Z,101918.49
2019-01-21T07:03:25.061Z,101918.16
2019-01-21T07:08:17.949Z,101921.00
2019-01-21T07:13:15.263Z,101938.34
2019-01-21T07:18:12.421Z,101940.31
2019-01-21T07:23:09.145Z,101943.08
2019-01-21T07:27:57.635Z,101953.99
2019-01-21T07:32:22.633Z,101948.34
2019-01-21T07:37:31.302Z,101955.67
2019-01-21T07:42:26.257Z,101964.94
2019-01-21T07:47:26.488Z,101969.77
2019-01-21T07:52:27.672Z,101974.66
2019-01-21T07:57:23.184Z,101975.63
2019-01-21T08:02:06.041Z,101969.27
2019-01-21T08:06:48.960Z,101987.55
2019-01-21T08:11:44.482Z,101986.69
2019-01-21T08:16:38.954Z,101991.58
2019-01-21T08:21:34.272Z,102001.33
2019-01-21T08:26:16.023Z,102004.65
2019-01-21T08:31:29.472Z,102011.02
2019-01-21T08:36:39.341Z,102008.27
2019-01-21T08:41:45.542Z,102014.95
2019-01-21T08:46:27.112Z,102013.84
2019-01-21T08:51:13.200Z,102008.05
2019-01-21T08:56:02.625Z,102014.94
2019-01-21T09:00:19.880Z,102013.11
2019-01-21T09:05:29.395Z,102006.66
2019-01-21T09:10:06.049Z,102014.61
2019-01-21T09:14:40.993Z,102007.92
2019-01-21T09:19:21.752Z,102004.22
2019-01-21T09:24:08.083Z,102004.05
2019-01-21T09:29:07.322Z,102005.28
2019-01-21T09:34:11.637Z,102001.17
2019-01-21T09:39:14.948Z,101999.05
2019-01-21T09:43:59.014Z,102000.55
2019-01-21T09:48:02.070Z,102003.16
2019-01-21T09:52:19.201Z,101996.48
2019-01-21T09:56:24.955Z,102004.05
2019-01-21T10:00:29.860Z,102013.41
2019-01-21T10:05:07.272Z,102016.37
2019-01-21T10:09:48.419Z,102005.80
2019-01-21T10:14:59.125Z,102005.91
2019-01-21T10:20:19.629Z,102003.67
2019-01-21T10:24:53.724Z,101995.33
2019-01-21T10:30:06.224Z,101986.18
2019-01-21T10:35:10.555Z,101996.79
2019-01-21T10:40:07.922Z,101987.02
2019-01-21T10:44:59.008Z,101983.24
2019-01-21T10:49:43.693Z,101973.94
2019-01-21T10:54:36.787Z,101960.03
2019-01-21T10:59:32.807Z,101958.00
2019-01-21T11:04:26.466Z,101955.63
2019-01-21T11:09:35.847Z,101940.77
2019-01-21T11:14:47.651Z,101931.48
2019-01-21T11:19:54.072Z,101942.03
2019-01-21T11:25:42.129Z,101928.16
2019-01-21T11:30:21.510Z,101927.03
2019-01-21T11:35:19.630Z,101925.98
2019-01-21T11:40:32.365Z,101918.67
2019-01-21T11:45:41.451Z,101913.86
2019-01-21T11:50:43.788Z,101907.30
2019-01-21T11:55:40.019Z,101902.53
2019-01-21T12:00:42.658Z,101902.62
2019-01-21T12:05:30.758Z,101892.78
2019-01-21T12:10:40.571Z,101893.91
2019-01-21T12:15:26.032Z,101887.88
2019-01-21T12:20:03.145Z,101882.11
2019-01-21T12:24:45.871Z,101878.33
2019-01-21T12:29:45.932Z,101874.64
2019-01-21T12:34:46.544Z,101871.64
2019-01-21T12:39:09.694Z,101856.27
2019-01-21T12:43:42.301Z,101850.63
2019-01-21T12:48:29.438Z,101848.66
2019-01-21T12:52:53.198Z,101832.17
2019-01-21T12:58:19.675Z,101824.73
2019-01-21T13:03:34.609Z,101833.80
2019-01-21T13:08:58.314Z,101830.23
2019-01-21T13:13:58.556Z,101829.17
2019-01-21T13:18:54.741Z,101822.04
2019-01-21T13:23:51.338Z,101807.07
2019-01-21T13:28:45.780Z,101796.86
2019-01-21T13:33:34.428Z,101803.11
2019-01-21T13:38:29.650Z,101791.80
2019-01-21T13:43:17.997Z,101783.30
2019-01-21T13:48:19.054Z,101772.87
2019-01-21T13:52:59.862Z,101765.47
2019-01-21T13:58:14.531Z,101757.42
2019-01-21T14:02:43.413Z,101751.51
2019-01-21T14:07:36.823Z,101742.40
2019-01-21T14:12:31.916Z,101728.23
2019-01-21T14:17:40.908Z,101740.80
2019-01-21T14:22:44.950Z,101723.86
2019-01-21T14:28:01.535Z,101715.55
2019-01-21T14:32:36.276Z,101716.44
2019-01-21T14:37:47.299Z,101704.86
2019-01-21T14:42:48.493Z,101711.09
2019-01-21T14:47:51.103Z,101712.41
2019-01-21T14:53:08.848Z,101706.07
2019-01-21T14:58:05.098Z,101704.80
2019-01-21T15:03:00.668Z,101696.88
2019-01-21T15:07:32.612Z,101704.53
2019-01-21T15:12:46.254Z,101699.20
2019-01-21T15:17:49.552Z,101694.03
2019-01-21T15:22:38.426Z,101692.38
2019-01-21T15:27:22.263Z,101700.71
2019-01-21T15:32:12.655Z,101713.36
2019-01-21T15:37:08.951Z,101729.89
2019-01-21T15:41:59.379Z,101728.58
2019-01-21T15:47:05.615Z,101715.69
2019-01-21T15:51:57.591Z,101708.92
2019-01-21T15:56:51.238Z,101710.40
2019-01-21T16:02:01.452Z,101703.38
2019-01-21T16:07:06.187Z,101701.37
2019-01-21T16:11:48.562Z,101688.08
2019-01-21T16:17:08.257Z,101678.80
2019-01-21T16:22:05.516Z,101681.80
2019-01-21T16:26:27.569Z,101674.00
2019-01-21T16:30:57.315Z,101674.39
2019-01-21T16:35:31.528Z,101676.88
2019-01-21T16:40:26.627Z,101671.38
2019-01-21T16:44:31.628Z,101669.95
2019-01-21T16:48:36.934Z,101663.36
2019-01-21T16:52:41.956Z,101660.84
2019-01-21T16:56:46.959Z,101650.04
2019-01-21T17:00:51.947Z,101654.86
2019-01-21T17:04:56.824Z,101644.70
2019-01-21T17:09:01.745Z,101646.81
2019-01-21T17:13:06.731Z,101641.56
2019-01-21T17:21:16.892Z,101644.08
2019-01-21T17:25:21.844Z,101652.49
2019-01-21T17:29:26.752Z,101645.97
2019-01-21T17:33:32.312Z,101638.27
2019-01-21T17:37:37.498Z,101638.53
2019-01-21T17:41:42.478Z,101628.78
2019-01-21T17:45:47.390Z,101629.77
2019-01-21T17:49:52.335Z,101616.98
2019-01-21T17:53:57.241Z,101609.33
2019-01-21T17:58:02.221Z,101616.89
2019-01-21T18:02:07.535Z,101627.84
2019-01-21T18:06:12.448Z,101629.11
2019-01-21T18:10:20.447Z,101620.70
2019-01-21T18:14:25.455Z,101619.70
2019-01-21T18:18:30.373Z,101610.80
2019-01-21T18:22:35.401Z,101607.67
2019-01-21T18:26:40.426Z,101620.23
2019-01-21T18:30:45.316Z,101617.09
2019-01-21T18:34:50.684Z,101621.20
2019-01-21T18:38:55.594Z,101621.34
2019-01-21T18:43:00.628Z,101614.05
2019-01-21T18:47:05.890Z,101615.75
2019-01-21T18:51:10.892Z,101616.23
2019-01-21T18:55:15.777Z,101611.59
2019-01-21T18:59:20.793Z,101610.84
2019-01-21T19:03:26.169Z,101605.04
2019-01-21T19:07:31.218Z,101587.66
2019-01-21T19:11:36.549Z,101585.31
2019-01-21T19:15:41.429Z,101578.74
2019-01-21T19:19:46.342Z,101574.87
2019-01-21T19:23:51.681Z,101569.22
2019-01-21T19:27:56.732Z,101568.27
2019-01-21T19:32:01.723Z,101576.36
2019-01-21T19:36:06.735Z,101574.94
2019-01-21T19:40:16.332Z,101576.17
2019-01-21T19:44:21.635Z,101562.58
2019-01-21T19:48:26.531Z,101560.67
2019-01-21T19:52:31.462Z,101558.97
2019-01-21T19:56:36.449Z,101553.91
2019-01-21T20:00:41.460Z,101558.99
2019-01-21T20:04:46.374Z,101548.63
2019-01-21T20:08:51.281Z,101555.37
2019-01-21T20:12:56.239Z,101551.54
2019-01-21T20:17:01.392Z,101547.29
2019-01-21T20:21:06.436Z,101542.16
2019-01-21T20:25:11.673Z,101534.73
2019-01-21T20:29:16.667Z,101534.32
2019-01-21T20:33:21.620Z,101532.08
2019-01-21T20:37:31.144Z,101526.04
2019-01-21T20:41:36.082Z,101524.73
2019-01-21T20:45:41.685Z,101522.04
2019-01-21T20:49:46.567Z,101519.19
2019-01-21T20:53:52.173Z,101514.82
2019-01-21T20:57:57.543Z,101506.47
2019-01-21T21:02:02.702Z,101505.81
2019-01-21T21:06:07.946Z,101504.78
2019-01-21T21:10:13.259Z,101503.95
2019-01-21T21:14:18.599Z,101496.91
2019-01-21T21:18:23.554Z,101510.30
2019-01-21T21:22:28.601Z,101509.68
2019-01-21T21:26:33.539Z,101504.11
2019-01-21T21:30:38.547Z,101507.50
2019-01-21T21:34:43.936Z,101498.80
2019-01-21T21:38:48.865Z,101490.11
2019-01-21T21:42:53.820Z,101497.79
2019-01-21T21:46:58.783Z,101492.56
2019-01-21T21:51:03.730Z,101486.88
2019-01-21T21:55:10.249Z,101472.38
2019-01-21T21:59:15.455Z,101474.37
2019-01-21T22:03:20.409Z,101467.01
2019-01-21T22:07:25.432Z,101463.84
2019-01-21T22:11:30.365Z,101464.33
2019-01-21T22:15:35.681Z,101468.03
2019-01-21T22:19:40.708Z,101456.02
2019-01-21T22:23:45.630Z,101448.91
2019-01-21T22:27:50.571Z,101441.88
2019-01-21T22:31:55.515Z,101437.77
2019-01-21T22:36:00.846Z,101434.53
2019-01-21T22:40:08.723Z,101420.95
2019-01-21T22:44:14.207Z,101412.84
2019-01-21T22:48:19.124Z,101393.25
2019-01-21T22:52:24.332Z,101396.48
2019-01-21T22:56:29.284Z,101391.56
2019-01-21T23:01:11.807Z,101393.47
2019-01-21T23:05:16.856Z,101391.59
2019-01-21T23:09:22.071Z,101386.02
2019-01-21T23:13:26.964Z,101381.46
2019-01-21T23:17:31.895Z,101368.98
2019-01-21T23:21:36.854Z,101364.42
2019-01-21T23:25:41.779Z,101354.36
2019-01-21T23:29:46.684Z,101346.70
2019-01-21T23:33:51.924Z,101342.34
2019-01-21T23:37:56.855Z,101334.84
2019-01-21T23:42:01.858Z,101323.84
2019-01-21T23:46:06.770Z,101317.15
2019-01-21T23:50:11.689Z,101314.13
2019-01-21T23:54:17.051Z,101312.19
2019-01-21T23:58:21.961Z,101314.95
